createdAt,value
2023-04-21T00:00:03.232Z,7.31
2023-04-21T00:05:03.590Z,7.52
2023-04-21T00:10:02.906Z,7.45
2023-04-21T00:15:02.646Z,7.38
2023-04-21T00:20:02.363Z,7.32
2023-04-21T00:25:02.251Z,7.51
2023-04-21T00:30:03.065Z,7.48
2023-04-21T00:35:02.890Z,7.39
2023-04-21T00:40:02.603Z,7.35
2023-04-21T00:45:02.309Z,7.44
2023-04-21T00:50:03.044Z,7.41
2023-04-21T00:55:04.008Z,7.39
2023-04-21T01:00:02.623Z,7.4
2023-04-21T01:05:02.624Z,7.38
2023-04-21T01:10:02.404Z,7.26
2023-04-21T01:15:03.244Z,7.26
2023-04-21T01:20:02.870Z,7.02
2023-04-21T01:25:02.918Z,7.02
2023-04-21T01:30:02.739Z,7.11
2023-04-21T01:35:02.466Z,7.14
2023-04-21T01:40:02.363Z,7.09
2023-04-21T01:45:03.061Z,7
2023-04-21T01:50:02.730Z,7.05
2023-04-21T01:55:03.427Z,6.94
2023-04-21T02:00:02.577Z,6.85
2023-04-21T02:05:02.252Z,6.88
2023-04-21T02:10:03.103Z,6.86
2023-04-21T02:15:02.873Z,6.8
2023-04-21T02:20:04.076Z,6.78
2023-04-21T02:25:02.906Z,6.72
2023-04-21T02:30:02.292Z,6.71
2023-04-21T02:35:02.954Z,6.67
2023-04-21T02:40:02.710Z,6.67
2023-04-21T02:45:02.436Z,6.56
2023-04-21T02:50:03.073Z,6.62
2023-04-21T02:55:03.894Z,6.6
2023-04-21T03:00:02.685Z,6.54
2023-04-21T03:05:02.439Z,6.6
2023-04-21T03:10:02.661Z,6.61
2023-04-21T03:15:02.453Z,6.67
2023-04-21T03:20:03.177Z,6.83
2023-04-21T03:25:03.114Z,6.68
2023-04-21T03:30:02.933Z,6.61
2023-04-21T03:35:02.650Z,6.47
2023-04-21T03:40:02.351Z,6.4
2023-04-21T03:45:03.067Z,6.33
2023-04-21T03:50:02.732Z,6.37
2023-04-21T03:55:03.434Z,6.46
2023-04-21T04:00:02.302Z,6.5
2023-04-21T04:05:03.012Z,6.44
2023-04-21T04:10:02.751Z,6.45
2023-04-21T04:15:02.773Z,6.36
2023-04-21T04:20:02.548Z,6.32
2023-04-21T04:25:02.301Z,6.28
2023-04-21T04:30:03.218Z,6.34
2023-04-21T04:35:02.891Z,6.45
2023-04-21T04:40:02.189Z,6.44
2023-04-21T04:45:03.198Z,7.01
2023-04-21T04:50:02.655Z,7.32
2023-04-21T04:55:03.518Z,7.56
2023-04-21T05:00:02.254Z,7.9
2023-04-21T05:05:03.140Z,8.06
2023-04-21T05:10:02.865Z,8.22
2023-04-21T05:15:02.579Z,8.37
2023-04-21T05:20:02.299Z,8.94
2023-04-21T05:25:02.257Z,9.02
2023-04-21T05:30:02.223Z,9.22
2023-04-21T05:35:03.018Z,9.43
2023-04-21T05:40:02.259Z,9.75
2023-04-21T05:45:02.697Z,9.75
2023-04-21T05:50:02.343Z,10.06
2023-04-21T05:55:02.912Z,10.37
2023-04-21T06:00:02.893Z,10.32
2023-04-21T06:05:02.939Z,10.5
2023-04-21T06:10:02.537Z,10.56
2023-04-21T06:15:02.732Z,11.01
2023-04-21T06:20:02.568Z,11.28
2023-04-21T06:25:02.242Z,11.18
2023-04-21T06:30:03.046Z,11.27
2023-04-21T06:35:02.870Z,11.51
2023-04-21T06:40:02.449Z,11.48
2023-04-21T06:45:02.215Z,11.76
2023-04-21T06:50:03.007Z,11.9
2023-04-21T07:00:02.700Z,12.33
2023-04-21T07:05:02.462Z,12.28
2023-04-21T07:10:02.225Z,12.82
2023-04-21T07:15:02.958Z,12.6
2023-04-21T07:30:03.125Z,13.78
2023-04-21T07:35:02.750Z,13.64
2023-04-21T07:40:02.640Z,13.69
2023-04-21T07:45:03.048Z,13.59
2023-04-21T07:50:02.518Z,13.84
2023-04-21T07:55:03.142Z,14.36
2023-04-21T08:00:02.404Z,14.42
2023-04-21T08:05:03.241Z,14.49
2023-04-21T08:10:02.752Z,15.13
2023-04-21T08:15:02.533Z,14.71
2023-04-21T08:20:02.460Z,15
2023-04-21T08:30:02.978Z,15.54
2023-04-21T08:35:02.921Z,15.8
2023-04-21T08:40:02.845Z,15.61
2023-04-21T08:45:02.563Z,16.18
2023-04-21T08:50:02.256Z,15.74
2023-04-21T08:55:04.068Z,16.35
2023-04-21T09:00:03.596Z,16.28
2023-04-21T09:05:03.121Z,16.42
2023-04-21T09:20:02.295Z,17.21
2023-04-21T09:30:02.947Z,17.1
2023-04-21T09:35:02.731Z,17.83
2023-04-21T09:40:04.589Z,17.78
2023-04-21T09:45:23.603Z,17.99
2023-04-21T09:50:02.687Z,18.16
2023-04-21T09:55:04.269Z,18.53
2023-04-21T10:00:02.913Z,18.25
2023-04-21T10:10:02.367Z,18.77
2023-04-21T10:15:02.371Z,18.74
2023-04-21T10:20:03.150Z,18.39
2023-04-21T10:25:02.895Z,18.48
2023-04-21T10:35:02.601Z,18.93
2023-04-21T10:40:02.356Z,18.41
2023-04-21T10:45:03.216Z,18.88
2023-04-21T10:50:02.856Z,18.31
2023-04-21T11:00:02.411Z,19.49
2023-04-21T11:05:03.202Z,19.76
2023-04-21T11:10:02.802Z,19.03
2023-04-21T11:15:02.702Z,19.41
2023-04-21T11:20:02.685Z,18.89
2023-04-21T11:25:03.003Z,19.56
2023-04-21T11:30:02.516Z,19.2
2023-04-21T11:35:02.246Z,19.57
2023-04-21T11:40:02.988Z,19.65
2023-04-21T11:45:02.768Z,19.91
2023-04-21T11:50:02.888Z,19.6
2023-04-21T11:55:03.702Z,19.36
2023-04-21T12:00:02.786Z,20.04
2023-04-21T12:05:02.724Z,20.15
2023-04-21T12:10:02.557Z,19.19
2023-04-21T12:15:02.374Z,19.89
2023-04-21T12:20:03.088Z,19.78
2023-04-21T12:25:02.890Z,20.02
2023-04-21T12:30:03.151Z,20.01
2023-04-21T12:35:03.180Z,20.02
2023-04-21T12:40:02.686Z,19.19
2023-04-21T12:45:02.406Z,20.22
2023-04-21T12:50:03.094Z,19.84
2023-04-21T12:55:04.331Z,20.45
2023-04-21T13:00:02.897Z,20.52
2023-04-21T13:05:02.629Z,19.68
2023-04-21T13:10:02.418Z,19.92
2023-04-21T13:15:02.290Z,19.59
2023-04-21T13:20:03.150Z,20.68
2023-04-21T13:25:03.216Z,20.76
2023-04-21T13:30:03.003Z,20.48
2023-04-21T13:35:02.511Z,19.9
2023-04-21T13:40:02.356Z,20.47
2023-04-21T13:45:03.159Z,19.98
2023-04-21T13:50:03.142Z,20.87
2023-04-21T13:55:03.196Z,20.25
2023-04-21T14:00:02.396Z,20.38
2023-04-21T14:05:02.488Z,19.9
2023-04-21T14:10:02.963Z,20.15
2023-04-21T14:15:02.862Z,20.77
2023-04-21T14:20:02.692Z,20.4
2023-04-21T14:25:02.349Z,19.57
2023-04-21T14:30:03.382Z,20.27
2023-04-21T14:35:02.944Z,20.65
2023-04-21T14:40:02.687Z,20.68
2023-04-21T14:45:02.378Z,20.68
2023-04-21T14:50:03.111Z,20.74
2023-04-21T14:55:03.522Z,19.58
2023-04-21T15:00:02.757Z,19.49
2023-04-21T15:05:02.512Z,20.26
2023-04-21T15:10:03.258Z,20.17
2023-04-21T15:15:03.205Z,20.3
2023-04-21T15:20:02.932Z,19.61
2023-04-21T15:25:02.784Z,19.99
2023-04-21T15:30:02.572Z,19.84
2023-04-21T15:35:02.259Z,19.91
2023-04-21T15:40:03.101Z,20.06
2023-04-21T15:45:02.931Z,19.83
2023-04-21T15:50:02.609Z,19.77
2023-04-21T15:55:03.274Z,20.14
2023-04-21T16:00:02.442Z,19.79
2023-04-21T16:05:03.281Z,19.67
2023-04-21T16:10:02.803Z,19.54
2023-04-21T16:15:16.270Z,19.62
2023-04-21T16:20:02.446Z,19.51
2023-04-21T16:25:02.302Z,19.11
2023-04-21T16:30:03.442Z,18.95
2023-04-21T16:35:02.267Z,18.73
2023-04-21T16:40:02.977Z,18.9
2023-04-21T16:45:02.986Z,18.89
2023-04-21T16:50:02.538Z,18.67
2023-04-21T16:55:03.343Z,18.57
2023-04-21T17:00:02.302Z,18.45
2023-04-21T17:05:03.268Z,18.37
2023-04-21T17:10:02.338Z,18.04
2023-04-21T17:15:03.056Z,18.05
2023-04-21T17:20:02.957Z,17.76
2023-04-21T17:25:02.651Z,17.79
2023-04-21T17:30:03.164Z,17.49
2023-04-21T17:35:02.340Z,17.27
2023-04-21T17:40:03.423Z,17.08
2023-04-21T17:45:02.974Z,16.92
2023-04-21T17:50:02.581Z,16.62
2023-04-21T17:55:03.118Z,16.37
2023-04-21T18:00:02.215Z,16.28
2023-04-21T18:05:03.154Z,15.97
2023-04-21T18:10:02.947Z,15.77
2023-04-21T18:15:02.830Z,15.35
2023-04-21T18:20:02.416Z,15.23
2023-04-21T18:25:03.175Z,14.97
2023-04-21T18:30:02.848Z,15.05
2023-04-21T18:35:02.468Z,14.82
2023-04-21T18:40:02.166Z,14.58
2023-04-21T18:45:04.393Z,14.46
2023-04-21T18:50:02.805Z,14.43
2023-04-21T18:55:02.991Z,14.2
2023-04-21T19:00:02.271Z,14.07
2023-04-21T19:05:02.180Z,13.83
2023-04-21T19:10:03.095Z,13.56
2023-04-21T19:15:02.987Z,13.45
2023-04-21T19:20:02.688Z,13.4
2023-04-21T19:25:02.566Z,13.7
2023-04-21T19:30:02.314Z,13.55
2023-04-21T19:35:02.976Z,13.48
2023-04-21T19:40:02.893Z,13.46
2023-04-21T19:45:02.639Z,13.43
2023-04-21T19:50:02.718Z,13.41
2023-04-21T19:55:03.099Z,13.35
2023-04-21T20:00:02.406Z,13.24
2023-04-21T20:05:03.115Z,13.22
2023-04-21T20:10:02.759Z,13.16
2023-04-21T20:15:02.605Z,13.11
2023-04-21T20:20:02.331Z,12.99
2023-04-21T20:25:02.215Z,12.9
2023-04-21T20:30:02.968Z,12.73
2023-04-21T20:35:02.688Z,12.52
2023-04-21T20:40:02.669Z,12.43
2023-04-21T20:45:03.115Z,12.32
2023-04-21T20:50:02.819Z,12.33
2023-04-21T20:55:03.492Z,12.24
2023-04-21T21:00:02.325Z,12.14
2023-04-21T21:05:03.376Z,12.18
2023-04-21T21:10:03.386Z,12.14
2023-04-21T21:15:03.000Z,12.07
2023-04-21T21:20:02.649Z,12
2023-04-21T21:25:02.442Z,11.91
2023-04-21T21:30:03.224Z,11.98
2023-04-21T21:35:02.848Z,11.92
2023-04-21T21:40:02.806Z,11.76
2023-04-21T21:45:02.555Z,11.65
2023-04-21T21:50:02.326Z,11.55
2023-04-21T21:55:04.311Z,11.45
2023-04-21T22:00:02.905Z,11.43
2023-04-21T22:05:02.580Z,11.22
2023-04-21T22:10:02.524Z,11.19
2023-04-21T22:15:02.668Z,11.14
2023-04-21T22:20:02.425Z,10.94
2023-04-21T22:25:02.328Z,10.79
2023-04-21T22:30:02.454Z,10.67
2023-04-21T22:35:02.331Z,10.84
2023-04-21T22:40:03.035Z,10.83
2023-04-21T22:45:02.840Z,10.59
2023-04-21T22:50:02.492Z,10.47
2023-04-21T22:55:02.759Z,10.29
2023-04-21T23:00:03.236Z,10.2
2023-04-21T23:05:02.618Z,10.11
2023-04-21T23:10:02.437Z,9.98
2023-04-21T23:15:03.226Z,9.82
2023-04-21T23:20:03.076Z,9.98
2023-04-21T23:25:02.859Z,9.61
2023-04-21T23:30:02.671Z,9.52
2023-04-21T23:35:02.601Z,9.75
2023-04-21T23:40:02.351Z,9.96
2023-04-21T23:45:03.217Z,9.98
2023-04-21T23:50:02.899Z,9.93
2023-04-21T23:55:03.488Z,9.65
